createdAt,value
2017-10-01T00:01:29.304Z,3.23
2017-10-01T00:04:02.834Z,3.00
2017-10-01T00:06:37.110Z,8.53
2017-10-01T00:09:10.629Z,3.50
2017-10-01T00:11:44.094Z,3.20
2017-10-01T00:14:17.749Z,2.93
2017-10-01T00:16:52.017Z,5.53
2017-10-01T00:19:25.669Z,4.90
2017-10-01T00:21:59.262Z,2.50
2017-10-01T00:24:32.941Z,1.93
2017-10-01T00:27:06.366Z,2.37
2017-10-01T00:29:39.818Z,2.40
2017-10-01T00:32:13.254Z,2.37
2017-10-01T00:34:47.534Z,2.10
2017-10-01T00:37:21.071Z,2.27
2017-10-01T00:39:54.653Z,2.43
2017-10-01T00:42:29.061Z,2.47
2017-10-01T00:45:03.281Z,2.70
2017-10-01T00:47:37.490Z,2.50
2017-10-01T00:50:11.865Z,2.83
2017-10-01T00:52:45.382Z,2.50
2017-10-01T00:55:18.889Z,2.40
2017-10-01T00:57:52.561Z,3.00
2017-10-01T01:00:26.074Z,3.10
2017-10-01T01:03:00.451Z,3.87
2017-10-01T01:05:34.001Z,2.60
2017-10-01T01:08:07.655Z,3.67
2017-10-01T01:10:41.190Z,2.20
2017-10-01T01:13:14.708Z,2.30
2017-10-01T01:15:48.150Z,2.33
2017-10-01T01:18:21.690Z,2.87
2017-10-01T01:20:56.046Z,2.87
2017-10-01T01:23:30.465Z,3.93
2017-10-01T01:26:03.958Z,2.70
2017-10-01T01:28:37.614Z,2.60
2017-10-01T01:31:11.166Z,3.10
2017-10-01T01:33:45.478Z,2.67
2017-10-01T01:36:18.994Z,2.30
2017-10-01T01:38:52.529Z,2.90
2017-10-01T01:41:26.227Z,2.70
2017-10-01T01:43:59.673Z,2.50
2017-10-01T01:46:33.488Z,2.60
2017-10-01T01:49:07.577Z,2.90
2017-10-01T01:51:41.332Z,3.03
2017-10-01T01:54:15.020Z,3.43
2017-10-01T01:56:48.649Z,2.33
2017-10-01T01:59:22.298Z,2.87
2017-10-01T02:01:55.781Z,3.13
2017-10-01T02:04:29.432Z,3.10
2017-10-01T02:07:03.708Z,2.70
2017-10-01T02:09:37.349Z,8.33
2017-10-01T02:12:10.801Z,6.43
2017-10-01T02:14:44.570Z,5.40
2017-10-01T02:17:18.050Z,4.00
2017-10-01T02:19:51.762Z,9.93
2017-10-01T02:22:25.469Z,5.80
2017-10-01T02:24:59.062Z,6.20
2017-10-01T02:27:32.864Z,3.53
2017-10-01T02:30:06.472Z,2.90
2017-10-01T02:32:40.026Z,2.93
2017-10-01T02:35:13.566Z,3.10
2017-10-01T02:37:47.266Z,2.43
2017-10-01T02:40:20.874Z,4.57
2017-10-01T02:42:54.541Z,2.57
2017-10-01T02:45:28.150Z,2.60
2017-10-01T02:48:01.682Z,2.80
2017-10-01T02:50:36.061Z,3.03
2017-10-01T02:53:09.777Z,3.27
2017-10-01T02:55:43.450Z,2.40
2017-10-01T02:58:16.990Z,3.10
2017-10-01T03:00:50.666Z,3.00
2017-10-01T03:03:25.066Z,2.93
2017-10-01T03:05:58.766Z,2.83
2017-10-01T03:08:32.378Z,3.23
2017-10-01T03:11:06.062Z,2.53
2017-10-01T03:13:39.620Z,2.97
2017-10-01T03:16:13.338Z,3.37
2017-10-01T03:18:46.841Z,3.20
2017-10-01T03:21:20.408Z,2.87
2017-10-01T03:23:54.142Z,3.23
2017-10-01T03:26:27.925Z,2.73
2017-10-01T03:29:01.648Z,3.00
2017-10-01T03:31:35.238Z,3.10
2017-10-01T03:34:09.645Z,3.33
2017-10-01T03:36:43.256Z,3.40
2017-10-01T03:39:16.983Z,3.50
2017-10-01T03:41:51.250Z,3.83
2017-10-01T03:44:24.980Z,3.70
2017-10-01T03:46:58.543Z,3.53
2017-10-01T03:49:32.069Z,3.50
2017-10-01T03:52:05.724Z,3.07
2017-10-01T03:54:40.197Z,3.93
2017-10-01T03:57:13.807Z,2.90
2017-10-01T03:59:48.093Z,3.20
2017-10-01T04:02:22.405Z,3.10
2017-10-01T04:04:56.005Z,3.53
2017-10-01T04:07:29.737Z,2.80
2017-10-01T04:10:03.514Z,3.13
2017-10-01T04:12:37.245Z,3.10
2017-10-01T04:15:10.849Z,3.67
2017-10-01T04:17:44.469Z,3.50
2017-10-01T04:20:18.062Z,3.83
2017-10-01T04:22:51.636Z,3.73
2017-10-01T04:25:25.476Z,3.10
2017-10-01T04:27:59.170Z,3.60
2017-10-01T04:30:32.770Z,3.50
2017-10-01T04:33:06.469Z,3.13
2017-10-01T04:35:40.046Z,4.00
2017-10-01T04:38:13.873Z,3.13
2017-10-01T04:40:47.486Z,3.30
2017-10-01T04:43:21.810Z,3.70
2017-10-01T04:45:55.689Z,4.07
2017-10-01T04:48:29.300Z,4.50
2017-10-01T04:51:02.902Z,3.40
2017-10-01T04:53:36.509Z,3.90
2017-10-01T04:56:10.085Z,3.60
2017-10-01T04:58:43.661Z,3.00
2017-10-01T05:01:17.386Z,3.17
2017-10-01T05:03:51.958Z,3.00
2017-10-01T05:06:25.529Z,2.93
2017-10-01T05:08:59.033Z,3.80
2017-10-01T05:11:32.729Z,3.53
2017-10-01T05:14:06.246Z,3.60
2017-10-01T05:16:39.950Z,3.50
2017-10-01T05:19:13.746Z,4.00
2017-10-01T05:21:47.342Z,3.60
2017-10-01T05:24:21.784Z,3.77
2017-10-01T05:26:55.560Z,3.30
2017-10-01T05:29:29.213Z,3.57
2017-10-01T05:32:02.873Z,3.27
2017-10-01T05:34:36.879Z,2.70
2017-10-01T05:37:10.482Z,3.60
2017-10-01T05:39:44.497Z,3.10
2017-10-01T05:42:18.894Z,3.13
2017-10-01T05:44:52.473Z,3.70
2017-10-01T05:47:26.890Z,3.37
2017-10-01T05:50:00.528Z,2.87
2017-10-01T05:52:34.333Z,2.60
2017-10-01T05:55:07.933Z,2.70
2017-10-01T05:57:41.489Z,3.03
2017-10-01T06:00:15.771Z,1.87
2017-10-01T06:02:49.453Z,2.70
2017-10-01T06:05:23.874Z,2.03
2017-10-01T06:07:57.413Z,1.90
2017-10-01T06:10:31.276Z,2.50
2017-10-01T06:13:04.985Z,1.83
2017-10-01T06:15:38.617Z,2.60
2017-10-01T06:18:12.145Z,1.93
2017-10-01T06:20:46.674Z,1.97
2017-10-01T06:23:20.747Z,2.00
2017-10-01T06:25:54.420Z,2.07
2017-10-01T06:28:28.638Z,1.70
2017-10-01T06:31:02.221Z,2.20
2017-10-01T06:33:35.847Z,1.90
2017-10-01T06:36:09.550Z,1.80
2017-10-01T06:38:42.994Z,1.70
2017-10-01T06:41:16.790Z,1.70
2017-10-01T06:43:51.265Z,2.27
2017-10-01T06:46:24.869Z,2.20
2017-10-01T06:48:59.113Z,1.70
2017-10-01T06:51:32.885Z,2.40
2017-10-01T06:54:07.993Z,2.40
2017-10-01T06:56:41.636Z,3.30
2017-10-01T06:59:15.229Z,3.27
2017-10-01T07:01:48.841Z,3.30
2017-10-01T07:04:22.638Z,4.23
2017-10-01T07:06:56.298Z,7.43
2017-10-01T07:09:29.910Z,8.10
2017-10-01T07:12:03.542Z,9.70
2017-10-01T07:14:37.352Z,7.50
2017-10-01T07:17:11.145Z,8.13
2017-10-01T07:19:44.953Z,9.13
2017-10-01T07:22:18.543Z,9.40
2017-10-01T07:24:52.158Z,9.83
2017-10-01T07:27:25.762Z,9.87
2017-10-01T07:29:59.218Z,11.93
2017-10-01T07:32:33.057Z,9.77
2017-10-01T07:35:06.586Z,10.70
2017-10-01T07:37:40.262Z,11.63
2017-10-01T07:40:14.449Z,11.00
2017-10-01T07:42:48.077Z,11.30
2017-10-01T07:45:21.674Z,10.30
2017-10-01T07:47:55.442Z,10.37
2017-10-01T07:50:29.090Z,10.50
2017-10-01T07:53:02.846Z,11.43
2017-10-01T07:55:36.489Z,10.77
2017-10-01T07:58:10.077Z,11.83
2017-10-01T08:00:43.659Z,11.07
2017-10-01T08:03:17.297Z,10.87
2017-10-01T08:05:50.877Z,10.63
2017-10-01T08:08:24.500Z,10.70
2017-10-01T08:10:58.108Z,11.23
2017-10-01T08:13:31.713Z,11.10
2017-10-01T08:16:05.185Z,10.50
2017-10-01T08:18:38.775Z,9.67
2017-10-01T08:21:12.820Z,9.90
2017-10-01T08:23:46.645Z,9.57
2017-10-01T08:26:20.231Z,10.97
2017-10-01T08:28:53.814Z,9.23
2017-10-01T08:31:27.317Z,9.77
2017-10-01T08:34:01.227Z,10.30
2017-10-01T08:36:34.934Z,9.53
2017-10-01T08:39:08.405Z,10.60
2017-10-01T08:41:42.030Z,9.37
2017-10-01T08:44:16.452Z,10.70
2017-10-01T08:46:50.193Z,10.90
2017-10-01T08:49:23.718Z,11.47
2017-10-01T08:51:57.663Z,11.90
2017-10-01T08:54:31.357Z,12.40
2017-10-01T08:57:04.938Z,11.57
2017-10-01T08:59:38.572Z,11.10
2017-10-01T09:02:12.025Z,10.07
2017-10-01T09:04:45.657Z,12.03
2017-10-01T09:07:19.256Z,11.03
2017-10-01T09:09:52.861Z,11.90
2017-10-01T09:12:26.457Z,12.57
2017-10-01T09:15:00.266Z,11.70
2017-10-01T09:17:34.060Z,10.80
2017-10-01T09:20:07.631Z,11.57
2017-10-01T09:22:41.174Z,11.90
2017-10-01T09:25:14.834Z,12.50
2017-10-01T09:27:48.478Z,12.90
2017-10-01T09:30:22.793Z,12.07
2017-10-01T09:32:56.521Z,11.40
2017-10-01T09:35:30.092Z,10.00
2017-10-01T09:38:03.854Z,10.23
2017-10-01T09:40:37.362Z,9.80
2017-10-01T09:43:11.218Z,9.77
2017-10-01T09:45:45.369Z,9.73
2017-10-01T09:48:18.984Z,10.63
2017-10-01T09:50:53.514Z,11.50
2017-10-01T09:53:27.118Z,9.20
2017-10-01T09:56:02.078Z,10.27
2017-10-01T09:58:35.802Z,8.57
2017-10-01T10:01:10.175Z,9.57
2017-10-01T10:03:43.697Z,9.20
2017-10-01T10:06:17.398Z,9.83
2017-10-01T10:08:50.989Z,8.00
2017-10-01T10:11:24.585Z,8.60
2017-10-01T10:13:58.306Z,7.80
2017-10-01T10:16:32.414Z,7.60
2017-10-01T10:19:06.229Z,7.63
2017-10-01T10:21:39.967Z,8.40
2017-10-01T10:24:13.686Z,7.47
2017-10-01T10:26:47.346Z,8.83
2017-10-01T10:29:20.930Z,8.53
2017-10-01T10:31:54.444Z,10.20
2017-10-01T10:34:28.237Z,8.37
2017-10-01T10:37:03.070Z,8.20
2017-10-01T10:39:36.775Z,7.97
2017-10-01T10:42:11.053Z,9.77
2017-10-01T10:44:44.695Z,9.90
2017-10-01T10:47:18.158Z,11.70
2017-10-01T10:49:52.518Z,10.50
2017-10-01T10:52:26.049Z,9.90
2017-10-01T10:54:59.749Z,9.30
2017-10-01T10:57:33.423Z,8.57
2017-10-01T11:00:08.024Z,8.50
2017-10-01T11:05:41.595Z,6.17
2017-10-01T11:08:15.126Z,6.73
2017-10-01T11:10:49.542Z,6.07
2017-10-01T11:13:23.082Z,6.70
2017-10-01T11:15:56.715Z,7.57
2017-10-01T11:18:30.417Z,6.43
2017-10-01T11:21:03.849Z,6.33
2017-10-01T11:23:37.377Z,6.23
2017-10-01T11:26:11.670Z,6.30
2017-10-01T11:28:46.005Z,5.97
2017-10-01T11:31:19.449Z,3.90
2017-10-01T11:33:52.963Z,5.83
2017-10-01T11:36:26.597Z,4.60
2017-10-01T11:39:00.251Z,4.33
2017-10-01T11:41:33.752Z,4.30
2017-10-01T11:44:07.392Z,4.00
2017-10-01T11:46:40.829Z,3.00
2017-10-01T11:49:14.478Z,3.63
2017-10-01T11:51:48.685Z,2.80
2017-10-01T11:54:22.209Z,2.47
2017-10-01T11:56:55.746Z,3.30
2017-10-01T11:59:29.402Z,3.60
2017-10-01T12:02:03.594Z,4.65
2017-10-01T12:04:37.105Z,3.63
2017-10-01T12:07:10.627Z,3.03
2017-10-01T12:09:45.133Z,3.22
2017-10-01T12:12:19.333Z,2.50
2017-10-01T12:14:52.840Z,2.97
2017-10-01T12:17:27.241Z,2.90
2017-10-01T12:20:00.745Z,2.20
2017-10-01T12:22:34.285Z,2.33
2017-10-01T12:25:08.569Z,2.47
2017-10-01T12:27:42.088Z,2.83
2017-10-01T12:30:15.760Z,1.83
2017-10-01T12:32:49.203Z,2.10
2017-10-01T12:35:22.744Z,2.03
2017-10-01T12:37:56.249Z,2.30
2017-10-01T12:40:29.902Z,2.90
2017-10-01T12:43:03.342Z,2.23
2017-10-01T12:45:36.983Z,2.10
2017-10-01T12:48:10.413Z,2.47
2017-10-01T12:50:44.088Z,2.63
2017-10-01T12:53:17.521Z,2.07
2017-10-01T12:55:51.213Z,2.40
2017-10-01T12:58:24.704Z,2.03
2017-10-01T13:00:58.281Z,2.00
2017-10-01T13:03:32.048Z,2.30
2017-10-01T13:06:05.770Z,2.10
2017-10-01T13:08:39.404Z,2.25
2017-10-01T13:11:13.687Z,2.43
2017-10-01T13:13:48.094Z,1.60
2017-10-01T13:16:21.672Z,2.23
2017-10-01T13:18:55.112Z,1.73
2017-10-01T13:21:29.531Z,2.20
2017-10-01T13:24:03.146Z,2.53
2017-10-01T13:26:36.586Z,2.20
2017-10-01T13:29:10.064Z,1.83
2017-10-01T13:31:43.701Z,2.17
2017-10-01T13:34:17.205Z,2.27
2017-10-01T13:36:50.877Z,2.40
2017-10-01T13:39:24.389Z,1.97
2017-10-01T13:41:57.926Z,2.30
2017-10-01T13:44:31.559Z,1.63
2017-10-01T13:47:04.997Z,1.90
2017-10-01T13:49:38.432Z,1.80
2017-10-01T13:52:11.992Z,5.20
2017-10-01T13:54:45.442Z,5.73
2017-10-01T13:57:19.725Z,2.33
2017-10-01T13:59:53.934Z,2.83
2017-10-01T14:02:28.249Z,2.40
2017-10-01T14:05:01.754Z,1.90
2017-10-01T14:07:35.281Z,2.00
2017-10-01T14:10:08.781Z,2.23
2017-10-01T14:12:43.066Z,2.10
2017-10-01T14:15:17.377Z,1.67
2017-10-01T14:17:51.009Z,2.20
2017-10-01T14:20:24.445Z,1.97
2017-10-01T14:22:58.117Z,1.80
2017-10-01T14:25:31.764Z,1.60
2017-10-01T14:28:05.409Z,1.77
2017-10-01T14:33:40.682Z,3.00
2017-10-01T14:36:14.224Z,2.13
2017-10-01T14:38:47.785Z,2.50
2017-10-01T14:41:21.293Z,2.23
2017-10-01T14:43:54.885Z,2.60
2017-10-01T14:46:28.596Z,2.40
2017-10-01T14:49:02.221Z,2.30
2017-10-01T14:51:36.610Z,2.20
2017-10-01T14:54:10.286Z,2.40
2017-10-01T14:56:43.885Z,2.50
2017-10-01T14:59:17.392Z,2.60
2017-10-01T15:01:51.020Z,2.07
2017-10-01T15:04:24.745Z,14.50
2017-10-01T15:06:58.269Z,5.27
2017-10-01T15:09:33.617Z,5.37
2017-10-01T15:12:07.225Z,2.80
2017-10-01T15:14:40.764Z,2.30
2017-10-01T15:17:14.214Z,2.03
2017-10-01T15:19:47.722Z,2.00
2017-10-01T15:22:21.293Z,2.73
2017-10-01T15:24:54.723Z,2.33
2017-10-01T15:27:28.255Z,2.90
2017-10-01T15:30:01.883Z,3.20
2017-10-01T15:32:35.525Z,2.00
2017-10-01T15:35:09.729Z,1.97
2017-10-01T15:37:44.153Z,1.90
2017-10-01T15:40:18.466Z,2.27
2017-10-01T15:42:52.119Z,2.10
2017-10-01T15:45:25.549Z,2.40
2017-10-01T15:47:59.193Z,2.20
2017-10-01T15:50:32.638Z,2.63
2017-10-01T15:53:06.293Z,3.10
2017-10-01T15:55:40.585Z,3.13
2017-10-01T15:58:14.090Z,2.97
2017-10-01T16:00:47.606Z,3.30
2017-10-01T16:03:21.136Z,2.50
2017-10-01T16:05:54.705Z,2.80
2017-10-01T16:08:28.374Z,3.30
2017-10-01T16:11:01.894Z,2.43
2017-10-01T16:13:35.415Z,3.17
2017-10-01T16:16:09.049Z,2.77
2017-10-01T16:18:42.561Z,2.33
2017-10-01T16:21:16.031Z,2.73
2017-10-01T16:23:49.553Z,2.83
2017-10-01T16:26:23.190Z,2.47
2017-10-01T16:28:56.873Z,3.13
2017-10-01T16:31:30.321Z,2.30
2017-10-01T16:34:03.865Z,2.40
2017-10-01T16:36:37.297Z,2.60
2017-10-01T16:39:10.901Z,3.30
2017-10-01T16:41:44.502Z,2.73
2017-10-01T16:44:18.154Z,2.97
2017-10-01T16:46:51.926Z,4.53
2017-10-01T16:49:25.525Z,10.80
2017-10-01T16:51:59.069Z,5.20
2017-10-01T16:54:33.432Z,13.87
2017-10-01T16:57:07.409Z,3.40
2017-10-01T16:59:40.998Z,2.60
2017-10-01T17:02:15.562Z,3.50
2017-10-01T17:04:49.353Z,2.87
2017-10-01T17:07:22.913Z,4.70
2017-10-01T17:09:56.566Z,2.23
2017-10-01T17:12:30.839Z,2.70
2017-10-01T17:15:04.445Z,2.47
2017-10-01T17:17:38.207Z,3.10
2017-10-01T17:20:12.723Z,3.37
2017-10-01T17:22:47.026Z,2.90
2017-10-01T17:25:20.510Z,2.73
2017-10-01T17:27:54.808Z,3.30
2017-10-01T17:30:28.645Z,3.00
2017-10-01T17:33:02.145Z,2.53
2017-10-01T17:35:35.883Z,3.07
2017-10-01T17:38:09.538Z,2.67
2017-10-01T17:40:43.758Z,3.10
2017-10-01T17:43:17.956Z,2.90
2017-10-01T17:45:51.485Z,2.53
2017-10-01T17:48:24.999Z,2.47
2017-10-01T17:50:58.458Z,3.20
2017-10-01T17:53:31.985Z,2.37
2017-10-01T17:56:05.626Z,3.00
2017-10-01T17:58:39.138Z,2.50
2017-10-01T18:01:12.673Z,2.50
2017-10-01T18:03:46.113Z,2.97
2017-10-01T18:06:19.780Z,3.00
2017-10-01T18:08:54.064Z,2.67
2017-10-01T18:11:27.593Z,3.17
2017-10-01T18:14:01.029Z,3.37
2017-10-01T18:16:34.677Z,3.03
2017-10-01T18:19:08.986Z,2.83
2017-10-01T18:21:42.656Z,3.23
2017-10-01T18:24:16.093Z,3.50
2017-10-01T18:26:49.622Z,3.47
2017-10-01T18:29:23.149Z,4.03
2017-10-01T18:31:56.801Z,3.47
2017-10-01T18:34:31.193Z,3.00
2017-10-01T18:37:04.710Z,3.53
2017-10-01T18:39:38.213Z,3.20
2017-10-01T18:42:11.867Z,3.10
2017-10-01T18:44:45.397Z,3.00
2017-10-01T18:47:18.894Z,3.00
2017-10-01T18:49:53.097Z,3.30
2017-10-01T18:52:26.630Z,3.70
2017-10-01T18:55:00.142Z,3.30
2017-10-01T18:57:33.582Z,3.70
2017-10-01T19:00:07.214Z,3.90
2017-10-01T19:02:41.628Z,3.90
2017-10-01T19:05:15.145Z,3.90
2017-10-01T19:07:49.581Z,4.03
2017-10-01T19:10:23.038Z,3.40
2017-10-01T19:12:56.693Z,4.57
2017-10-01T19:15:30.957Z,4.57
2017-10-01T19:18:04.445Z,4.30
2017-10-01T19:20:37.982Z,4.20
2017-10-01T19:23:11.496Z,4.40
2017-10-01T19:25:45.775Z,3.73
2017-10-01T19:28:19.305Z,4.70
2017-10-01T19:30:53.587Z,4.90
2017-10-01T19:33:27.106Z,4.10
2017-10-01T19:36:00.613Z,4.40
2017-10-01T19:38:34.908Z,4.30
2017-10-01T19:41:09.126Z,4.30
2017-10-01T19:43:42.696Z,7.17
2017-10-01T19:46:16.209Z,13.70
2017-10-01T19:48:49.858Z,8.60
2017-10-01T19:51:24.134Z,4.80
2017-10-01T19:53:58.452Z,4.37
2017-10-01T19:56:32.761Z,3.73
2017-10-01T19:59:06.272Z,4.77
2017-10-01T20:01:39.789Z,4.50
2017-10-01T20:04:14.190Z,5.23
2017-10-01T20:06:48.398Z,4.47
2017-10-01T20:09:22.037Z,4.37
2017-10-01T20:11:56.314Z,5.10
2017-10-01T20:14:29.970Z,5.03
2017-10-01T20:17:04.249Z,4.97
2017-10-01T20:19:38.465Z,4.77
2017-10-01T20:22:12.017Z,4.57
2017-10-01T20:24:46.378Z,4.87
2017-10-01T20:27:19.841Z,4.97
2017-10-01T20:29:53.363Z,5.30
2017-10-01T20:32:26.881Z,4.77
2017-10-01T20:35:00.396Z,4.77
2017-10-01T20:37:34.661Z,4.70
2017-10-01T20:40:08.181Z,4.97
2017-10-01T20:42:41.695Z,4.57
2017-10-01T20:45:15.220Z,4.30
2017-10-01T20:47:49.489Z,5.17
2017-10-01T20:50:23.814Z,10.73
2017-10-01T20:52:57.346Z,15.37
2017-10-01T20:55:31.642Z,15.67
2017-10-01T20:58:05.858Z,10.03
2017-10-01T21:00:40.080Z,30.90
2017-10-01T21:03:13.546Z,10.80
2017-10-01T21:05:46.986Z,5.07
2017-10-01T21:08:21.266Z,5.40
2017-10-01T21:10:54.793Z,5.00
2017-10-01T21:13:28.397Z,4.60
2017-10-01T21:16:02.073Z,3.90
2017-10-01T21:18:35.702Z,3.60
2017-10-01T21:21:10.278Z,4.20
2017-10-01T21:23:44.332Z,3.80
2017-10-01T21:26:18.141Z,3.30
2017-10-01T21:28:51.767Z,4.27
2017-10-01T21:31:25.733Z,4.20
2017-10-01T21:33:59.332Z,4.43
2017-10-01T21:36:33.401Z,3.83
2017-10-01T21:39:07.033Z,4.40
2017-10-01T21:41:40.868Z,3.90
2017-10-01T21:44:14.383Z,3.63
2017-10-01T21:46:47.896Z,3.77
2017-10-01T21:49:21.574Z,3.60
2017-10-01T21:51:55.124Z,3.47
2017-10-01T21:54:28.673Z,3.50
2017-10-01T21:57:02.239Z,3.87
2017-10-01T21:59:35.976Z,3.93
2017-10-01T22:02:09.551Z,4.10
2017-10-01T22:04:43.181Z,3.30
2017-10-01T22:07:16.778Z,3.70
2017-10-01T22:09:50.977Z,4.37
2017-10-01T22:12:24.589Z,3.40
2017-10-01T22:14:58.038Z,3.57
2017-10-01T22:17:31.892Z,3.77
2017-10-01T22:20:05.705Z,4.50
2017-10-01T22:22:39.562Z,3.90
2017-10-01T22:25:13.050Z,4.17
2017-10-01T22:27:46.815Z,4.97
2017-10-01T22:30:20.258Z,4.50
2017-10-01T22:32:53.907Z,5.67
2017-10-01T22:35:27.473Z,5.27
2017-10-01T22:38:01.093Z,4.67
2017-10-01T22:40:34.712Z,4.70
2017-10-01T22:43:08.933Z,4.63
2017-10-01T22:45:42.628Z,4.23
2017-10-01T22:48:16.132Z,4.13
2017-10-01T22:50:49.737Z,3.30
2017-10-01T22:53:24.879Z,3.40
2017-10-01T22:55:58.786Z,3.73
2017-10-01T22:58:32.372Z,3.80
2017-10-01T23:01:06.089Z,3.80
2017-10-01T23:03:40.198Z,3.37
2017-10-01T23:06:14.016Z,2.73
2017-10-01T23:08:47.614Z,3.23
2017-10-01T23:11:21.308Z,3.17
2017-10-01T23:13:54.901Z,3.73
2017-10-01T23:16:28.607Z,2.80
2017-10-01T23:19:02.054Z,3.30
2017-10-01T23:21:35.708Z,3.00
2017-10-01T23:24:10.005Z,3.20
2017-10-01T23:26:43.709Z,3.03
2017-10-01T23:29:17.514Z,2.73
2017-10-01T23:31:51.090Z,3.07
2017-10-01T23:34:24.794Z,2.97
2017-10-01T23:36:58.429Z,3.10
2017-10-01T23:39:32.949Z,3.07
2017-10-01T23:42:06.626Z,3.50
2017-10-01T23:44:40.430Z,3.90
2017-10-01T23:47:14.269Z,3.70
2017-10-01T23:49:47.965Z,2.73
2017-10-01T23:52:21.573Z,2.87
2017-10-01T23:54:55.174Z,2.67
2017-10-01T23:57:28.737Z,3.20
